aviador You're here:

KOAK Decoded Metar

OAKLAND in CA, USA
Report Time2018-01-18 11:31:00
UTC Time2018-01-18 11:42:41
Flight Rules ifr IFR
Wind090° at 07 kt
W.Decomp.*RWY 09: 6.7 kt HW 1.9 kt LCW
RWY 11: 5.7 kt HW 4.1 kt LCW
RWY 15: 1.7 kt HW 6.8 kt LCW
W.Rank090° ranks 35
Current wind is above 090° avg. (4.6)
Visibility3219 m
Phenomena:Mist
Clouds:Scattered 002 Hf
Broken 022 Hf
Overcast 028 Hf
Ceiling2,200 ft
Temp11°C (ISA -4)
Dew Point11°C (100% RH)
AAT8.8°C
QNH1020 hPa
Density Alt-433 ft
Elevation85 ft
Report Wrong Elevation
Raw Report
KOAK 181131Z 09007KT 2SM BR SCT002 BKN022 OVC028 11/11 A3013 RMK
AO2 SFC VIS 2 1/2 T01110111=

Extra information for KOAK:More info

Metar Taf Metar & Taf Last 4 Metars F.Rules Stats Wind Profile Meteogram Temp Stats Airport Information Weather charts Add Link Nearby VenuesMetar ALERT Operation Metar Decoded Social comments

AIRNAV info for KOAK